createdAt,value
2018-12-04T00:00:01.825Z,4.70
2018-12-04T00:01:01.807Z,4.80
2018-12-04T00:02:01.801Z,4.70
2018-12-04T00:03:01.789Z,4.70
2018-12-04T00:04:01.797Z,4.30
2018-12-04T00:05:01.766Z,3.70
2018-12-04T00:06:01.758Z,3.40
2018-12-04T00:07:01.744Z,3.40
2018-12-04T00:08:01.731Z,3.20
2018-12-04T00:09:01.747Z,3.30
2018-12-04T00:10:01.726Z,3.10
2018-12-04T00:11:01.701Z,2.90
2018-12-04T00:12:01.695Z,2.20
2018-12-04T00:13:01.673Z,2.30
2018-12-04T00:14:01.692Z,3.00
2018-12-04T00:15:01.666Z,2.60
2018-12-04T00:16:01.642Z,2.40
2018-12-04T00:17:01.630Z,2.40
2018-12-04T00:18:01.625Z,2.80
2018-12-04T00:19:01.632Z,2.50
2018-12-04T00:20:01.598Z,2.80
2018-12-04T00:21:01.622Z,2.60
2018-12-04T00:22:01.573Z,2.30
2018-12-04T00:23:01.563Z,2.10
2018-12-04T00:24:01.584Z,1.90
2018-12-04T00:25:01.556Z,1.90
2018-12-04T00:26:01.536Z,1.90
2018-12-04T00:27:01.517Z,1.70
2018-12-04T00:28:01.509Z,1.70
2018-12-04T00:29:01.521Z,1.70
2018-12-04T00:30:01.500Z,2.00
2018-12-04T00:31:01.476Z,2.00
2018-12-04T00:32:01.517Z,1.70
2018-12-04T00:33:01.453Z,2.40
2018-12-04T00:34:01.462Z,1.70
2018-12-04T00:35:01.490Z,2.20
2018-12-04T00:36:01.423Z,2.00
2018-12-04T00:37:01.420Z,2.00
2018-12-04T00:38:01.411Z,2.20
2018-12-04T00:39:01.866Z,1.90
2018-12-04T00:40:01.387Z,2.30
2018-12-04T00:41:01.369Z,2.10
2018-12-04T00:42:01.350Z,1.90
2018-12-04T00:43:01.346Z,1.90
2018-12-04T00:44:01.355Z,2.00
2018-12-04T00:45:01.328Z,2.10
2018-12-04T00:46:01.317Z,2.20
2018-12-04T00:47:01.307Z,2.20
2018-12-04T00:48:01.304Z,2.00
2018-12-04T00:49:01.296Z,2.20
2018-12-04T00:50:01.273Z,2.30
2018-12-04T00:51:01.249Z,2.20
2018-12-04T00:52:01.240Z,2.00
2018-12-04T00:53:01.278Z,1.90
2018-12-04T00:54:01.258Z,2.00
2018-12-04T00:55:01.220Z,2.30
2018-12-04T00:56:01.195Z,1.80
2018-12-04T00:57:01.195Z,2.10
2018-12-04T00:58:01.186Z,2.30
2018-12-04T00:59:01.194Z,2.10
2018-12-04T01:00:01.160Z,2.10
2018-12-04T01:01:01.149Z,1.90
2018-12-04T01:02:01.139Z,2.20
2018-12-04T01:03:01.128Z,2.20
2018-12-04T01:04:01.131Z,2.10
2018-12-04T01:05:01.109Z,2.10
2018-12-04T01:06:01.651Z,2.20
2018-12-04T01:07:01.077Z,2.40
2018-12-04T01:08:01.073Z,2.00
2018-12-04T01:09:01.092Z,2.60
2018-12-04T01:10:01.062Z,2.40
2018-12-04T01:11:01.039Z,2.20
2018-12-04T01:12:01.034Z,2.60
2018-12-04T01:13:01.015Z,2.10
2018-12-04T01:14:01.012Z,2.40
2018-12-04T01:15:00.993Z,2.30
2018-12-04T01:16:00.973Z,2.20
2018-12-04T01:17:00.981Z,2.20
2018-12-04T01:18:00.971Z,2.60
2018-12-04T01:19:00.958Z,2.60
2018-12-04T01:20:00.958Z,2.50
2018-12-04T01:21:00.925Z,2.90
2018-12-04T01:22:01.203Z,2.70
2018-12-04T01:23:00.909Z,2.70
2018-12-04T01:24:00.948Z,2.40
2018-12-04T01:25:00.915Z,2.70
2018-12-04T01:26:00.875Z,2.50
2018-12-04T01:27:00.865Z,2.60
2018-12-04T01:28:00.849Z,2.20
2018-12-04T01:29:01.655Z,2.70
2018-12-04T01:30:00.855Z,2.40
2018-12-04T01:31:00.819Z,2.20
2018-12-04T01:32:00.797Z,2.40
2018-12-04T01:33:00.796Z,2.40
2018-12-04T01:34:00.791Z,2.50
2018-12-04T01:35:00.787Z,2.60
2018-12-04T01:36:00.762Z,2.60
2018-12-04T01:37:00.746Z,2.40
2018-12-04T01:38:00.745Z,2.80
2018-12-04T01:39:00.729Z,2.40
2018-12-04T01:40:00.737Z,3.10
2018-12-04T01:41:00.713Z,2.30
2018-12-04T01:42:00.702Z,2.10
2018-12-04T01:43:00.684Z,2.40
2018-12-04T01:45:09.893Z,2.00
2018-12-04T01:46:10.840Z,2.50
2018-12-04T01:47:10.843Z,2.60
2018-12-04T01:48:10.825Z,2.40
2018-12-04T01:49:10.811Z,2.60
2018-12-04T01:50:10.839Z,2.60
2018-12-04T01:51:10.801Z,2.60
2018-12-04T01:52:10.785Z,3.10
2018-12-04T01:53:10.778Z,2.50
2018-12-04T01:54:10.762Z,2.70
2018-12-04T01:55:10.772Z,2.90
2018-12-04T01:56:10.748Z,2.30
2018-12-04T01:57:10.729Z,2.40
2018-12-04T01:58:10.758Z,2.50
2018-12-04T01:59:10.709Z,2.30
2018-12-04T02:00:10.724Z,3.10
2018-12-04T02:01:10.704Z,2.50
2018-12-04T02:02:10.682Z,2.50
2018-12-04T02:03:10.670Z,2.90
2018-12-04T02:04:10.659Z,2.50
2018-12-04T02:05:10.676Z,2.50
2018-12-04T02:06:10.630Z,2.50
2018-12-04T02:07:10.630Z,2.70
2018-12-04T02:08:10.612Z,2.60
2018-12-04T02:09:10.607Z,3.00
2018-12-04T02:10:10.638Z,2.80
2018-12-04T02:11:10.587Z,2.80
2018-12-04T02:12:10.569Z,2.60
2018-12-04T02:13:10.566Z,3.00
2018-12-04T02:14:10.555Z,3.00
2018-12-04T02:15:10.566Z,3.00
2018-12-04T02:16:10.534Z,2.70
2018-12-04T02:17:10.512Z,2.70
2018-12-04T02:18:10.499Z,2.50
2018-12-04T02:19:10.495Z,2.80
2018-12-04T02:20:10.526Z,2.90
2018-12-04T02:21:10.468Z,2.60
2018-12-04T02:22:10.451Z,2.20
2018-12-04T02:23:10.454Z,2.50
2018-12-04T02:24:10.445Z,2.80
2018-12-04T02:25:10.443Z,2.60
2018-12-04T02:26:10.421Z,2.60
2018-12-04T02:27:10.407Z,3.20
2018-12-04T02:28:10.402Z,3.00
2018-12-04T02:29:10.376Z,2.70
2018-12-04T02:30:10.372Z,2.50
2018-12-04T02:31:10.375Z,2.50
2018-12-04T02:32:10.345Z,2.70
2018-12-04T02:33:10.336Z,2.90
2018-12-04T02:34:10.333Z,2.50
2018-12-04T02:35:10.355Z,2.60
2018-12-04T02:36:10.314Z,3.30
2018-12-04T02:37:10.298Z,2.50
2018-12-04T02:38:10.295Z,2.50
2018-12-04T02:39:10.283Z,2.60
2018-12-04T02:40:10.294Z,2.80
2018-12-04T02:41:10.260Z,2.90
2018-12-04T02:42:10.245Z,2.90
2018-12-04T02:43:10.232Z,2.60
2018-12-04T02:44:10.227Z,2.80
2018-12-04T02:45:10.231Z,2.70
2018-12-04T02:46:10.194Z,2.80
2018-12-04T02:47:10.189Z,2.80
2018-12-04T02:48:10.174Z,2.30
2018-12-04T02:49:10.177Z,2.40
2018-12-04T02:50:10.187Z,3.00
2018-12-04T02:51:10.152Z,2.50
2018-12-04T02:52:10.146Z,2.60
2018-12-04T02:53:10.242Z,2.60
2018-12-04T02:54:10.120Z,2.50
2018-12-04T02:55:10.119Z,2.80
2018-12-04T02:56:10.099Z,2.60
2018-12-04T02:57:10.096Z,2.60
2018-12-04T02:58:10.076Z,2.70
2018-12-04T02:59:10.066Z,2.70
2018-12-04T03:00:10.065Z,2.80
2018-12-04T03:01:10.045Z,2.90
2018-12-04T03:02:10.029Z,3.30
2018-12-04T03:03:10.016Z,2.80
2018-12-04T03:04:10.014Z,2.80
2018-12-04T03:05:09.994Z,2.70
2018-12-04T03:06:09.991Z,2.60
2018-12-04T03:07:09.985Z,2.80
2018-12-04T03:08:09.969Z,2.80
2018-12-04T03:09:09.982Z,2.90
2018-12-04T03:10:09.932Z,2.80
2018-12-04T03:11:09.969Z,2.80
2018-12-04T03:12:09.910Z,2.50
2018-12-04T03:13:09.900Z,2.50
2018-12-04T03:14:09.913Z,2.70
2018-12-04T03:15:09.891Z,2.80
2018-12-04T03:16:09.914Z,2.70
2018-12-04T03:17:09.863Z,2.70
2018-12-04T03:18:09.859Z,3.10
2018-12-04T03:19:09.841Z,2.60
2018-12-04T03:20:09.833Z,2.80
2018-12-04T03:21:09.848Z,2.60
2018-12-04T03:22:09.814Z,2.90
2018-12-04T03:23:09.800Z,2.40
2018-12-04T03:24:09.787Z,2.50
2018-12-04T03:25:09.777Z,2.50
2018-12-04T03:26:09.793Z,2.80
2018-12-04T03:27:09.759Z,2.50
2018-12-04T03:28:09.822Z,2.80
2018-12-04T03:29:09.738Z,3.00
2018-12-04T03:30:09.719Z,3.10
2018-12-04T03:31:09.729Z,2.70
2018-12-04T03:32:09.707Z,3.10
2018-12-04T03:33:09.709Z,2.80
2018-12-04T03:34:09.686Z,3.00
2018-12-04T03:35:09.682Z,2.90
2018-12-04T03:36:09.688Z,2.80
2018-12-04T03:37:09.645Z,3.10
2018-12-04T03:38:09.645Z,2.90
2018-12-04T03:39:09.625Z,2.80
2018-12-04T03:40:09.624Z,3.40
2018-12-04T03:41:09.637Z,3.00
2018-12-04T03:42:09.605Z,3.10
2018-12-04T03:43:09.585Z,3.10
2018-12-04T03:44:09.583Z,3.00
2018-12-04T03:46:19.086Z,2.70
2018-12-04T03:47:20.052Z,2.90
2018-12-04T03:48:20.034Z,2.80
2018-12-04T03:49:20.027Z,2.80
2018-12-04T03:50:20.019Z,2.60
2018-12-04T03:51:20.034Z,3.30
2018-12-04T03:52:19.988Z,3.00
2018-12-04T03:53:19.976Z,3.00
2018-12-04T03:54:19.967Z,3.00
2018-12-04T03:55:19.958Z,2.70
2018-12-04T03:56:19.981Z,2.90
2018-12-04T03:57:19.936Z,2.70
2018-12-04T03:58:19.924Z,3.00
2018-12-04T03:59:19.913Z,3.20
2018-12-04T04:00:19.929Z,3.00
2018-12-04T04:01:19.923Z,3.20
2018-12-04T04:02:19.896Z,2.60
2018-12-04T04:03:19.879Z,3.00
2018-12-04T04:04:19.858Z,2.80
2018-12-04T04:05:19.849Z,2.50
2018-12-04T04:06:19.857Z,2.80
2018-12-04T04:07:19.843Z,2.90
2018-12-04T04:08:19.821Z,3.00
2018-12-04T04:09:19.817Z,2.50
2018-12-04T04:10:19.803Z,2.30
2018-12-04T04:11:19.803Z,2.20
2018-12-04T04:12:19.773Z,2.90
2018-12-04T04:13:19.779Z,2.90
2018-12-04T04:14:19.764Z,2.40
2018-12-04T04:15:19.741Z,3.40
2018-12-04T04:16:19.777Z,3.00
2018-12-04T04:17:20.018Z,2.60
2018-12-04T04:18:19.712Z,2.60
2018-12-04T04:19:19.703Z,2.70
2018-12-04T04:20:19.682Z,2.50
2018-12-04T04:21:19.714Z,2.60
2018-12-04T04:22:19.685Z,2.70
2018-12-04T04:23:19.667Z,2.70
2018-12-04T04:24:19.654Z,2.70
2018-12-04T04:25:19.641Z,2.70
2018-12-04T04:26:19.644Z,2.90
2018-12-04T04:27:19.633Z,2.60
2018-12-04T04:28:19.608Z,2.60
2018-12-04T04:29:19.600Z,2.60
2018-12-04T04:30:19.596Z,2.50
2018-12-04T04:31:19.587Z,2.90
2018-12-04T04:32:19.579Z,2.90
2018-12-04T04:33:19.557Z,3.10
2018-12-04T04:34:19.531Z,2.60
2018-12-04T04:35:19.531Z,3.10
2018-12-04T04:36:19.539Z,2.80
2018-12-04T04:37:19.520Z,2.60
2018-12-04T04:38:19.509Z,3.00
2018-12-04T04:39:19.475Z,3.30
2018-12-04T04:40:19.464Z,3.20
2018-12-04T04:41:19.479Z,2.90
2018-12-04T04:42:19.459Z,3.20
2018-12-04T04:43:19.434Z,3.20
2018-12-04T04:44:19.439Z,3.00
2018-12-04T04:45:19.430Z,3.20
2018-12-04T04:46:19.438Z,2.80
2018-12-04T04:47:19.404Z,2.70
2018-12-04T04:48:19.378Z,2.80
2018-12-04T04:49:19.367Z,2.80
2018-12-04T04:50:19.376Z,2.70
2018-12-04T04:51:19.381Z,3.00
2018-12-04T04:52:19.352Z,2.80
2018-12-04T04:53:19.344Z,3.10
2018-12-04T04:54:19.331Z,2.90
2018-12-04T04:55:19.310Z,2.90
2018-12-04T04:56:19.318Z,3.30
2018-12-04T04:57:19.299Z,2.70
2018-12-04T04:58:19.276Z,3.00
2018-12-04T04:59:19.284Z,2.90
2018-12-04T05:00:19.261Z,2.70
2018-12-04T05:01:19.269Z,2.40
2018-12-04T05:02:19.233Z,2.70
2018-12-04T05:03:19.234Z,2.80
2018-12-04T05:04:19.219Z,2.80
2018-12-04T05:05:19.194Z,3.20
2018-12-04T05:06:19.215Z,2.90
2018-12-04T05:07:19.184Z,2.80
2018-12-04T05:08:19.163Z,2.90
2018-12-04T05:09:19.151Z,3.10
2018-12-04T05:10:19.140Z,2.40
2018-12-04T05:11:19.150Z,2.60
2018-12-04T05:12:19.131Z,2.90
2018-12-04T05:13:19.117Z,3.00
2018-12-04T05:14:19.105Z,3.40
2018-12-04T05:15:19.085Z,3.00
2018-12-04T05:16:19.105Z,2.70
2018-12-04T05:17:19.081Z,2.90
2018-12-04T05:18:19.068Z,3.10
2018-12-04T05:19:19.049Z,3.00
2018-12-04T05:20:19.042Z,3.20
2018-12-04T05:21:19.032Z,2.90
2018-12-04T05:22:19.023Z,2.80
2018-12-04T05:23:19.002Z,2.80
2018-12-04T05:24:18.990Z,3.30
2018-12-04T05:25:18.985Z,3.00
2018-12-04T05:26:18.980Z,3.00
2018-12-04T05:27:18.998Z,2.60
2018-12-04T05:28:18.959Z,3.20
2018-12-04T05:29:18.933Z,3.10
2018-12-04T05:30:18.936Z,3.60
2018-12-04T05:31:18.925Z,3.60
2018-12-04T05:32:18.927Z,3.20
2018-12-04T05:33:18.905Z,2.40
2018-12-04T05:34:18.901Z,3.10
2018-12-04T05:35:18.879Z,3.30
2018-12-04T05:36:18.862Z,3.40
2018-12-04T05:37:18.882Z,2.80
2018-12-04T05:38:18.864Z,3.20
2018-12-04T05:39:18.851Z,3.20
2018-12-04T05:40:18.822Z,3.00
2018-12-04T05:41:18.809Z,3.40
2018-12-04T05:42:18.830Z,3.00
2018-12-04T05:43:18.795Z,3.30
2018-12-04T05:44:18.775Z,2.90
2018-12-04T05:45:18.792Z,3.40
2018-12-04T05:47:28.019Z,2.90
2018-12-04T05:48:28.939Z,2.90
2018-12-04T05:49:28.927Z,3.60
2018-12-04T05:50:28.909Z,2.90
2018-12-04T05:51:28.902Z,3.00
2018-12-04T05:52:28.916Z,3.00
2018-12-04T05:53:28.875Z,3.00
2018-12-04T05:54:28.871Z,3.00
2018-12-04T05:55:28.859Z,3.10
2018-12-04T05:56:28.847Z,3.00
2018-12-04T05:57:28.866Z,2.80
2018-12-04T05:58:28.831Z,3.10
2018-12-04T05:59:28.821Z,3.50
2018-12-04T06:00:28.813Z,3.20
2018-12-04T06:01:28.802Z,3.30
2018-12-04T06:02:28.807Z,3.10
2018-12-04T06:03:28.792Z,3.10
2018-12-04T06:04:29.692Z,2.80
2018-12-04T06:05:28.761Z,3.10
2018-12-04T06:06:28.739Z,3.00
2018-12-04T06:07:28.738Z,3.20
2018-12-04T06:08:28.743Z,3.40
2018-12-04T06:09:28.714Z,3.20
2018-12-04T06:10:28.697Z,3.50
2018-12-04T06:11:28.697Z,3.30
2018-12-04T06:12:28.733Z,3.10
2018-12-04T06:13:28.698Z,2.70
2018-12-04T06:14:28.674Z,3.20
2018-12-04T06:15:28.657Z,3.20
2018-12-04T06:16:28.641Z,2.80
2018-12-04T06:17:28.637Z,3.00
2018-12-04T06:18:28.645Z,3.10
2018-12-04T06:19:28.609Z,3.50
2018-12-04T06:20:28.613Z,3.00
2018-12-04T06:21:28.588Z,2.70
2018-12-04T06:22:28.571Z,2.90
2018-12-04T06:23:28.589Z,3.10
2018-12-04T06:24:28.548Z,2.70
2018-12-04T06:25:28.536Z,3.50
2018-12-04T06:26:28.997Z,2.50
2018-12-04T06:27:28.529Z,3.20
2018-12-04T06:28:28.543Z,2.80
2018-12-04T06:29:28.504Z,3.10
2018-12-04T06:30:28.482Z,3.10
2018-12-04T06:31:28.486Z,3.30
2018-12-04T06:32:28.470Z,3.10
2018-12-04T06:33:28.478Z,3.10
2018-12-04T06:34:28.445Z,3.20
2018-12-04T06:35:28.441Z,3.30
2018-12-04T06:36:28.447Z,3.20
2018-12-04T06:37:28.418Z,3.00
2018-12-04T06:38:28.430Z,3.40
2018-12-04T06:39:28.395Z,3.00
2018-12-04T06:40:28.382Z,3.10
2018-12-04T06:41:28.371Z,3.30
2018-12-04T06:42:28.363Z,3.40
2018-12-04T06:43:28.374Z,2.80
2018-12-04T06:44:28.332Z,3.00
2018-12-04T06:45:28.334Z,2.90
2018-12-04T06:46:28.319Z,3.20
2018-12-04T06:47:28.348Z,2.40
2018-12-04T06:48:28.311Z,3.10
2018-12-04T06:49:28.284Z,2.90
2018-12-04T06:50:28.271Z,3.20
2018-12-04T06:51:28.287Z,2.90
2018-12-04T06:52:28.247Z,2.80
2018-12-04T06:53:28.261Z,3.40
2018-12-04T06:54:28.396Z,3.30
2018-12-04T06:55:28.229Z,2.70
2018-12-04T06:56:28.243Z,2.60
2018-12-04T06:57:28.201Z,2.90
2018-12-04T06:58:28.219Z,2.90
2018-12-04T06:59:28.184Z,3.20
2018-12-04T07:00:28.185Z,3.00
2018-12-04T07:01:28.167Z,2.60
2018-12-04T07:02:28.142Z,3.10
2018-12-04T07:03:28.591Z,2.70
2018-12-04T07:04:28.134Z,3.10
2018-12-04T07:05:28.364Z,3.00
2018-12-04T07:06:28.109Z,3.20
2018-12-04T07:07:28.086Z,3.10
2018-12-04T07:08:28.099Z,2.90
2018-12-04T07:09:28.079Z,2.80
2018-12-04T07:10:28.247Z,2.70
2018-12-04T07:11:28.091Z,3.50
2018-12-04T07:12:28.030Z,3.40
2018-12-04T07:13:28.018Z,3.40
2018-12-04T07:14:28.016Z,3.60
2018-12-04T07:15:28.005Z,3.50
2018-12-04T07:16:27.986Z,3.20
2018-12-04T07:17:28.043Z,3.60
2018-12-04T07:18:27.978Z,3.10
2018-12-04T07:19:28.005Z,3.50
2018-12-04T07:20:27.953Z,3.20
2018-12-04T07:21:27.953Z,3.30
2018-12-04T07:22:27.931Z,2.80
2018-12-04T07:23:27.933Z,2.80
2018-12-04T07:24:27.925Z,3.40
2018-12-04T07:25:27.895Z,3.10
2018-12-04T07:26:27.932Z,3.10
2018-12-04T07:27:27.883Z,2.80
2018-12-04T07:28:28.040Z,3.20
2018-12-04T07:29:27.883Z,3.70
2018-12-04T07:30:27.850Z,2.80
2018-12-04T07:31:27.904Z,3.10
2018-12-04T07:32:28.844Z,2.90
2018-12-04T07:33:27.843Z,3.00
2018-12-04T07:34:29.549Z,3.30
2018-12-04T07:35:27.790Z,3.00
2018-12-04T07:36:27.880Z,3.30
2018-12-04T07:37:27.837Z,3.50
2018-12-04T07:38:27.757Z,3.00
2018-12-04T07:39:27.774Z,3.70
2018-12-04T07:40:27.772Z,3.60
2018-12-04T07:41:27.754Z,3.50
2018-12-04T07:42:27.786Z,3.80
2018-12-04T07:43:27.707Z,2.60
2018-12-04T07:44:27.700Z,2.80
2018-12-04T07:45:27.715Z,3.40
2018-12-04T07:46:27.692Z,3.30
2018-12-04T07:48:47.865Z,3.00
2018-12-04T07:49:48.851Z,2.60
2018-12-04T07:50:48.855Z,2.90
2018-12-04T07:51:48.812Z,2.90
2018-12-04T07:52:48.799Z,2.80
2018-12-04T07:53:48.812Z,3.10
2018-12-04T07:54:48.773Z,2.70
2018-12-04T07:55:48.786Z,3.00
2018-12-04T07:56:49.152Z,3.30
2018-12-04T07:57:48.748Z,3.00
2018-12-04T07:58:48.748Z,2.90
2018-12-04T07:59:48.868Z,3.20
2018-12-04T08:00:48.755Z,3.10
2018-12-04T08:01:48.707Z,3.20
2018-12-04T08:02:48.698Z,3.40
2018-12-04T08:03:48.675Z,3.30
2018-12-04T08:04:48.677Z,3.00
2018-12-04T08:05:48.699Z,3.30
2018-12-04T08:06:48.663Z,3.10
2018-12-04T08:07:48.645Z,3.40
2018-12-04T08:08:48.642Z,3.20
2018-12-04T08:09:48.610Z,3.30
2018-12-04T08:10:48.640Z,3.50
2018-12-04T08:11:48.600Z,2.80
2018-12-04T08:12:48.583Z,3.40
2018-12-04T08:13:48.605Z,3.20
2018-12-04T08:14:48.564Z,3.30
2018-12-04T08:15:48.583Z,3.30
2018-12-04T08:16:48.580Z,3.20
2018-12-04T08:17:48.533Z,3.10
2018-12-04T08:18:48.519Z,3.30
2018-12-04T08:19:48.518Z,3.00
2018-12-04T08:20:49.201Z,3.10
2018-12-04T08:21:48.490Z,3.20
2018-12-04T08:22:48.498Z,3.10
2018-12-04T08:23:48.478Z,3.00
2018-12-04T08:24:48.445Z,2.90
2018-12-04T08:25:48.449Z,2.80
2018-12-04T08:26:49.122Z,3.30
2018-12-04T08:27:48.453Z,2.80
2018-12-04T08:28:48.410Z,3.00
2018-12-04T08:29:48.404Z,3.00
2018-12-04T08:30:48.389Z,3.70
2018-12-04T08:31:48.403Z,3.10
2018-12-04T08:32:48.373Z,3.20
2018-12-04T08:33:48.362Z,3.00
2018-12-04T08:34:48.427Z,3.20
2018-12-04T08:35:48.334Z,3.90
2018-12-04T08:36:48.354Z,3.30
2018-12-04T08:37:48.315Z,3.60
2018-12-04T08:38:48.336Z,3.20
2018-12-04T08:39:48.283Z,3.10
2018-12-04T08:40:48.294Z,2.90
2018-12-04T08:41:48.290Z,3.50
2018-12-04T08:42:48.328Z,3.10
2018-12-04T08:43:48.276Z,3.10
2018-12-04T08:44:48.229Z,3.10
2018-12-04T08:45:48.212Z,3.10
2018-12-04T08:46:48.233Z,3.30
2018-12-04T08:47:48.206Z,3.70
2018-12-04T08:48:48.265Z,3.30
2018-12-04T08:49:48.203Z,3.10
2018-12-04T08:50:48.378Z,3.00
2018-12-04T08:51:48.174Z,3.00
2018-12-04T08:52:48.150Z,3.20
2018-12-04T08:53:48.127Z,2.80
2018-12-04T08:54:50.628Z,2.90
2018-12-04T08:55:48.122Z,3.00
2018-12-04T08:56:48.113Z,3.00
2018-12-04T08:57:48.106Z,3.80
2018-12-04T08:58:48.319Z,3.50
2018-12-04T08:59:48.549Z,3.20
2018-12-04T09:00:48.155Z,3.00
2018-12-04T09:01:48.062Z,3.40
2018-12-04T09:02:48.045Z,3.40
2018-12-04T09:03:48.129Z,2.80
2018-12-04T09:04:48.245Z,3.40
2018-12-04T09:05:47.992Z,3.20
2018-12-04T09:06:48.103Z,3.10
2018-12-04T09:07:48.349Z,3.10
2018-12-04T09:08:48.056Z,3.00
2018-12-04T09:09:48.005Z,3.20
2018-12-04T09:10:48.051Z,2.90
2018-12-04T09:11:47.991Z,3.50
2018-12-04T09:12:47.928Z,2.90
2018-12-04T09:13:47.961Z,3.30
2018-12-04T09:14:47.901Z,3.30
2018-12-04T09:15:48.321Z,3.20
2018-12-04T09:16:47.891Z,3.10
2018-12-04T09:17:47.912Z,3.00
2018-12-04T09:18:47.888Z,3.50
2018-12-04T09:19:47.859Z,3.30
2018-12-04T09:20:47.888Z,3.00
2018-12-04T09:21:47.917Z,3.10
2018-12-04T09:22:47.871Z,3.10
2018-12-04T09:23:47.896Z,3.00
2018-12-04T09:24:47.823Z,2.90
2018-12-04T09:25:47.838Z,3.30
2018-12-04T09:26:47.898Z,3.00
2018-12-04T09:27:47.758Z,3.10
2018-12-04T09:28:48.028Z,3.50
2018-12-04T09:29:47.743Z,3.40
2018-12-04T09:30:47.720Z,3.50
2018-12-04T09:31:47.725Z,3.20
2018-12-04T09:32:47.705Z,3.10
2018-12-04T09:33:47.691Z,3.10
2018-12-04T09:34:47.671Z,3.00
2018-12-04T09:35:47.683Z,2.90
2018-12-04T09:36:47.713Z,2.60
2018-12-04T09:37:47.696Z,3.10
2018-12-04T09:38:47.637Z,3.20
2018-12-04T09:39:47.693Z,2.90
2018-12-04T09:40:47.613Z,3.20
2018-12-04T09:41:47.632Z,3.10
2018-12-04T09:42:47.595Z,3.50
2018-12-04T09:43:47.595Z,3.20
2018-12-04T09:44:47.668Z,3.40
2018-12-04T09:45:48.134Z,3.10
2018-12-04T09:46:47.598Z,2.60
2018-12-04T09:47:47.546Z,3.00
2018-12-04T09:49:58.657Z,2.50
2018-12-04T09:50:59.690Z,2.90
2018-12-04T09:51:59.656Z,2.90
2018-12-04T09:52:59.680Z,2.90
2018-12-04T09:53:59.616Z,3.20
2018-12-04T09:54:59.649Z,3.10
2018-12-04T09:55:59.733Z,2.50
2018-12-04T09:56:59.597Z,2.80
2018-12-04T09:57:59.623Z,2.50
2018-12-04T09:59:00.539Z,2.90
2018-12-04T09:59:59.776Z,3.30
2018-12-04T10:00:59.824Z,3.20
2018-12-04T10:02:03.008Z,3.50
2018-12-04T10:03:00.772Z,3.00
2018-12-04T10:03:59.623Z,3.60
2018-12-04T10:04:59.810Z,3.20
2018-12-04T10:05:59.497Z,3.40
2018-12-04T10:06:59.465Z,3.90
2018-12-04T10:07:59.475Z,3.20
2018-12-04T10:08:59.856Z,3.10
2018-12-04T10:10:00.783Z,3.20
2018-12-04T10:10:59.432Z,2.70
2018-12-04T10:11:59.734Z,3.20
2018-12-04T10:12:59.472Z,3.10
2018-12-04T10:13:59.404Z,3.20
2018-12-04T10:14:59.564Z,2.90
2018-12-04T10:15:59.410Z,3.40
2018-12-04T10:16:59.356Z,2.60
2018-12-04T10:17:59.370Z,2.40
2018-12-04T10:18:59.374Z,3.00
2018-12-04T10:19:59.330Z,2.40
2018-12-04T10:20:59.313Z,2.70
2018-12-04T10:21:59.316Z,2.80
2018-12-04T10:22:59.327Z,3.00
2018-12-04T10:23:59.348Z,3.10
2018-12-04T10:24:59.302Z,2.80
2018-12-04T10:25:59.263Z,3.20
2018-12-04T10:26:59.268Z,3.20
2018-12-04T10:27:59.300Z,3.00
2018-12-04T10:28:59.492Z,2.90
2018-12-04T10:30:00.348Z,2.80
2018-12-04T10:30:59.247Z,2.40
2018-12-04T10:31:59.979Z,2.50
2018-12-04T10:32:59.190Z,2.90
2018-12-04T10:33:59.991Z,3.20
2018-12-04T10:34:59.379Z,3.40
2018-12-04T10:35:59.174Z,2.70
2018-12-04T10:36:59.186Z,2.70
2018-12-04T10:38:00.435Z,2.70
2018-12-04T10:38:59.190Z,2.70
2018-12-04T10:39:59.161Z,2.80
2018-12-04T10:40:59.106Z,2.20
2018-12-04T10:41:59.109Z,2.50
2018-12-04T10:42:59.082Z,3.00
2018-12-04T10:43:59.086Z,3.20
2018-12-04T10:44:59.050Z,3.10
2018-12-04T10:45:59.047Z,3.10
2018-12-04T10:46:59.030Z,3.00
2018-12-04T10:47:59.018Z,2.90
2018-12-04T10:48:59.013Z,2.70
2018-12-04T10:49:59.006Z,2.80
2018-12-04T10:50:58.987Z,2.70
2018-12-04T10:51:59.156Z,2.90
2018-12-04T10:52:59.003Z,2.70
2018-12-04T10:53:58.959Z,2.80
2018-12-04T10:54:58.987Z,3.00
2018-12-04T10:55:58.940Z,3.30
2018-12-04T10:56:58.931Z,3.10
2018-12-04T10:57:59.171Z,2.90
2018-12-04T10:58:59.106Z,2.70
2018-12-04T10:59:58.914Z,3.00
2018-12-04T11:00:58.998Z,2.80
2018-12-04T11:01:58.868Z,2.60
2018-12-04T11:02:58.866Z,2.90
2018-12-04T11:03:58.862Z,2.60
2018-12-04T11:04:58.862Z,3.00
2018-12-04T11:05:58.990Z,2.40
2018-12-04T11:06:58.888Z,2.90
2018-12-04T11:07:58.814Z,3.00
2018-12-04T11:08:58.791Z,2.80
2018-12-04T11:09:58.807Z,2.80
2018-12-04T11:10:59.041Z,3.30
2018-12-04T11:11:58.884Z,3.10
2018-12-04T11:12:58.752Z,3.00
2018-12-04T11:13:59.005Z,2.80
2018-12-04T11:14:58.743Z,2.90
2018-12-04T11:15:59.041Z,3.00
2018-12-04T11:16:58.767Z,2.60
2018-12-04T11:17:58.705Z,3.00
2018-12-04T11:18:58.693Z,2.90
2018-12-04T11:19:58.698Z,2.90
2018-12-04T11:20:58.659Z,3.00
2018-12-04T11:21:58.660Z,2.80
2018-12-04T11:22:58.649Z,2.70
2018-12-04T11:23:58.634Z,2.70
2018-12-04T11:24:58.650Z,2.90
2018-12-04T11:25:58.630Z,2.70
2018-12-04T11:26:58.595Z,2.80
2018-12-04T11:27:58.597Z,2.50
2018-12-04T11:28:58.589Z,2.90
2018-12-04T11:29:58.602Z,3.10
2018-12-04T11:30:58.569Z,2.70
2018-12-04T11:31:58.551Z,3.00
2018-12-04T11:32:58.527Z,3.00
2018-12-04T11:33:58.530Z,3.00
2018-12-04T11:34:58.530Z,2.50
2018-12-04T11:35:58.502Z,2.80
2018-12-04T11:36:58.617Z,3.10
2018-12-04T11:37:58.485Z,2.90
2018-12-04T11:38:58.474Z,2.90
2018-12-04T11:39:58.501Z,3.00
2018-12-04T11:40:58.473Z,3.40
2018-12-04T11:41:58.453Z,2.90
2018-12-04T11:42:58.433Z,2.90
2018-12-04T11:43:58.475Z,2.90
2018-12-04T11:44:58.431Z,3.20
2018-12-04T11:45:58.409Z,2.90
2018-12-04T11:46:58.387Z,3.00
2018-12-04T11:47:58.387Z,3.00
2018-12-04T11:48:58.395Z,3.20
2018-12-04T11:51:07.591Z,2.80
2018-12-04T11:52:08.538Z,3.30
2018-12-04T11:53:08.527Z,3.20
2018-12-04T11:54:08.577Z,3.40
2018-12-04T11:55:08.506Z,3.20
2018-12-04T11:56:08.541Z,2.80
2018-12-04T11:57:08.489Z,2.80
2018-12-04T11:58:08.474Z,2.60
2018-12-04T11:59:08.522Z,3.20
2018-12-04T12:00:08.449Z,3.00
2018-12-04T12:01:08.464Z,3.00
2018-12-04T12:02:10.779Z,3.10
2018-12-04T12:03:08.418Z,3.10
2018-12-04T12:04:08.411Z,3.60
2018-12-04T12:05:08.409Z,3.10
2018-12-04T12:06:08.417Z,2.60
2018-12-04T12:07:08.378Z,3.20
2018-12-04T12:08:08.366Z,2.60
2018-12-04T12:09:08.364Z,3.20
2018-12-04T12:10:08.340Z,3.10
2018-12-04T12:11:08.362Z,3.20
2018-12-04T12:12:08.332Z,3.40
2018-12-04T12:13:08.315Z,3.20
2018-12-04T12:14:08.293Z,3.10
2018-12-04T12:15:08.307Z,2.70
2018-12-04T12:16:08.401Z,2.90
2018-12-04T12:17:08.271Z,3.10
2018-12-04T12:18:08.275Z,3.30
2018-12-04T12:19:08.246Z,3.00
2018-12-04T12:20:08.228Z,3.40
2018-12-04T12:21:08.246Z,2.90
2018-12-04T12:22:08.229Z,3.00
2018-12-04T12:23:08.232Z,3.10
2018-12-04T12:24:08.194Z,3.10
2018-12-04T12:25:08.186Z,3.10
2018-12-04T12:26:08.447Z,2.40
2018-12-04T12:27:08.162Z,3.10
2018-12-04T12:28:08.155Z,2.50
2018-12-04T12:29:08.134Z,3.20
2018-12-04T12:30:08.135Z,3.10
2018-12-04T12:31:08.131Z,2.60
2018-12-04T12:32:08.098Z,2.60
2018-12-04T12:33:08.092Z,2.80
2018-12-04T12:34:08.074Z,2.80
2018-12-04T12:35:08.084Z,2.80
2018-12-04T12:36:08.079Z,2.70
2018-12-04T12:37:08.054Z,2.90
2018-12-04T12:38:08.040Z,3.10
2018-12-04T12:39:08.023Z,2.70
2018-12-04T12:40:08.012Z,2.70
2018-12-04T12:41:07.997Z,2.70
2018-12-04T12:42:08.006Z,2.90
2018-12-04T12:43:07.981Z,2.50
2018-12-04T12:44:07.972Z,3.00
2018-12-04T12:45:07.959Z,2.70
2018-12-04T12:46:07.955Z,2.60
2018-12-04T12:47:08.192Z,2.80
2018-12-04T12:48:07.934Z,3.00
2018-12-04T12:49:07.916Z,3.20
2018-12-04T12:50:07.904Z,2.40
2018-12-04T12:51:07.901Z,2.80
2018-12-04T12:52:07.879Z,2.70
2018-12-04T12:53:08.014Z,2.70
2018-12-04T12:54:07.870Z,3.00
2018-12-04T12:55:07.853Z,2.70
2018-12-04T12:56:07.844Z,2.20
2018-12-04T12:57:07.832Z,2.80
2018-12-04T12:58:07.848Z,2.50
2018-12-04T12:59:07.818Z,3.10
2018-12-04T13:00:07.808Z,3.00
2018-12-04T13:01:07.785Z,2.70
2018-12-04T13:02:07.777Z,3.00
2018-12-04T13:03:07.784Z,2.40
2018-12-04T13:04:07.766Z,2.50
2018-12-04T13:05:07.750Z,2.80
2018-12-04T13:06:07.725Z,2.80
2018-12-04T13:07:07.725Z,3.00
2018-12-04T13:08:07.733Z,2.90
2018-12-04T13:09:07.698Z,2.80
2018-12-04T13:10:07.687Z,2.80
2018-12-04T13:11:07.689Z,2.50
2018-12-04T13:12:07.668Z,2.80
2018-12-04T13:13:08.782Z,2.70
2018-12-04T13:14:07.658Z,2.70
2018-12-04T13:15:07.642Z,2.50
2018-12-04T13:16:07.632Z,2.80
2018-12-04T13:17:07.603Z,2.80
2018-12-04T13:18:07.627Z,2.60
2018-12-04T13:19:07.595Z,2.90
2018-12-04T13:20:07.582Z,2.80
2018-12-04T13:21:07.590Z,2.70
2018-12-04T13:22:07.555Z,2.70
2018-12-04T13:23:07.566Z,2.70
2018-12-04T13:24:07.536Z,3.10
2018-12-04T13:25:07.539Z,2.70